This is the latest recevied weather packets stored in our database for station/object HS1AXC-1. If no packets are shown the sender has not sent any weather packets the latest 10 day(s).
| Time | Temp. | Humidity | Pressure | Rain* | Wind** | Luminosity | Snow |
|---|---|---|---|---|---|---|---|
| 1777335268 | 34.44° C | 75% | 1009 hPa | - | - | 0 W/m² | - |
| 1777334646 | 34.44° C | 77% | 1009 hPa | - | - | 0 W/m² | - |
| 1777334024 | 33.89° C | 78% | 1009 hPa | - | - | 1 W/m² | - |
| 1777333402 | 33.33° C | 81% | 1009 hPa | - | - | 0 W/m² | - |
| 1777332780 | 33.33° C | 80% | 1009 hPa | - | - | 0 W/m² | - |
| 1777332378 | 33.89° C | 79% | 1009 hPa | - | - | 0 W/m² | - |
| 1777331756 | 32.78° C | 83% | 1008 hPa | - | - | 0 W/m² | - |
| 1777331134 | 33.33° C | 83% | 1008 hPa | - | - | 0 W/m² | - |
| 1777330512 | 33.33° C | 82% | 1008 hPa | - | - | 0 W/m² | - |
| 1777329890 | 33.89° C | 80% | 1008 hPa | - | - | 0 W/m² | - |
| 1777329268 | 33.33° C | 84% | 1008 hPa | - | - | 0 W/m² | - |
| 1777328477 | 33.89° C | 79% | 1008 hPa | - | - | 0 W/m² | - |
| 1777327855 | 33.89° C | 80% | 1008 hPa | - | - | 0 W/m² | - |
| 1777327233 | 33.33° C | 81% | 1008 hPa | - | - | 0 W/m² | - |
| 1777326611 | 33.89° C | 80% | 1008 hPa | - | - | 0 W/m² | - |
| 1777325989 | 33.33° C | 81% | 1008 hPa | - | - | 0 W/m² | - |
| 1777325367 | 33.33° C | 82% | 1007 hPa | - | - | 0 W/m² | - |
| 1777324745 | 32.78° C | 83% | 1007 hPa | - | - | 0 W/m² | - |
| 1777324164 | 33.33° C | 82% | 1007 hPa | - | - | 0 W/m² | - |
| 1777323542 | 33.89° C | 78% | 1007 hPa | - | - | 0 W/m² | - |
| 1777322920 | 33.33° C | 81% | 1007 hPa | - | - | 0 W/m² | - |
| 1777322298 | 33.89° C | 79% | 1007 hPa | - | - | 0 W/m² | - |
| 1777321676 | 33.33° C | 81% | 1007 hPa | - | - | 0 W/m² | - |
| 1777321054 | 33.89° C | 80% | 1007 hPa | - | - | 0 W/m² | - |
| 1777320432 | 33.89° C | 79% | 1007 hPa | - | - | 0 W/m² | - |
* Rain since midnight (hover to see other rain measurements)
** Current wind speed in m/s (hover to see current wind gust speed)